createdAt,value
2022-11-06T00:00:09.163Z,100620.08
2022-11-06T00:02:36.221Z,100624.98
2022-11-06T00:05:22.181Z,100625.66
2022-11-06T00:07:49.533Z,100629.35
2022-11-06T00:10:17.396Z,100631.09
2022-11-06T00:12:45.183Z,100636.88
2022-11-06T00:15:13.156Z,100636.32
2022-11-06T00:17:40.850Z,100638.58
2022-11-06T00:20:09.803Z,100647.76
2022-11-06T00:22:38.142Z,100646.74
2022-11-06T00:25:07.489Z,100645.81
2022-11-06T00:27:37.637Z,100642.98
2022-11-06T00:30:06.778Z,100640.31
2022-11-06T00:32:34.556Z,100642.42
2022-11-06T00:35:02.322Z,100647.83
2022-11-06T00:37:29.467Z,100648.69
2022-11-06T00:39:56.717Z,100644.91
2022-11-06T00:42:23.995Z,100645.23
2022-11-06T00:44:52.045Z,100646.41
2022-11-06T00:47:19.293Z,100650.83
2022-11-06T00:49:46.449Z,100651.34
2022-11-06T00:52:13.595Z,100650.00
2022-11-06T00:54:40.862Z,100654.12
2022-11-06T00:57:08.107Z,100652.34
2022-11-06T00:59:35.557Z,100649.02
2022-11-06T01:02:03.076Z,100647.24
2022-11-06T01:04:30.662Z,100645.90
2022-11-06T01:06:57.826Z,100648.15
2022-11-06T01:09:27.293Z,100649.74
2022-11-06T01:12:12.787Z,100651.61
2022-11-06T01:14:42.880Z,100655.08
2022-11-06T01:17:10.267Z,100661.06
2022-11-06T01:19:37.847Z,100661.64
2022-11-06T01:22:05.323Z,100665.35
2022-11-06T01:24:32.989Z,100665.74
2022-11-06T01:29:47.355Z,100661.95
2022-11-06T01:32:15.135Z,100660.11
2022-11-06T01:34:42.537Z,100658.38
2022-11-06T01:37:14.202Z,100653.21
2022-11-06T01:39:42.300Z,100651.38
2022-11-06T01:42:12.509Z,100648.48
2022-11-06T01:44:42.625Z,100648.29
2022-11-06T01:47:20.731Z,100648.36
2022-11-06T01:49:48.881Z,100651.61
2022-11-06T01:52:16.731Z,100651.77
2022-11-06T01:54:46.888Z,100650.64
2022-11-06T01:57:14.328Z,100652.89
2022-11-06T01:59:44.375Z,100657.06
2022-11-06T02:02:12.383Z,100655.02
2022-11-06T02:04:44.248Z,100651.98
2022-11-06T02:07:12.546Z,100647.34
2022-11-06T02:09:40.009Z,100647.38
2022-11-06T02:12:26.630Z,100645.95
2022-11-06T02:15:02.776Z,100647.95
2022-11-06T02:17:53.268Z,100653.88
2022-11-06T02:20:36.807Z,100657.05
2022-11-06T02:23:26.885Z,100657.42
2022-11-06T02:26:26.836Z,100656.48
2022-11-06T02:29:01.551Z,100662.08
2022-11-06T02:31:32.466Z,100662.71
2022-11-06T02:34:07.493Z,100659.30
2022-11-06T02:36:37.918Z,100653.45
2022-11-06T02:39:11.332Z,100650.19
2022-11-06T02:41:41.723Z,100646.36
2022-11-06T02:44:13.729Z,100652.07
2022-11-06T02:47:06.565Z,100654.19
2022-11-06T02:49:48.319Z,100656.11
2022-11-06T02:52:22.106Z,100658.81
2022-11-06T02:55:12.621Z,100656.32
2022-11-06T02:57:43.934Z,100656.61
2022-11-06T03:00:14.290Z,100651.80
2022-11-06T03:02:55.046Z,100652.80
2022-11-06T03:05:27.276Z,100650.13
2022-11-06T03:07:59.743Z,100650.85
2022-11-06T03:10:31.307Z,100654.35
2022-11-06T03:13:15.648Z,100652.77
2022-11-06T03:16:07.556Z,100653.02
2022-11-06T03:18:42.733Z,100649.31
2022-11-06T03:21:14.617Z,100646.05
2022-11-06T03:23:54.043Z,100645.34
2022-11-06T03:26:34.694Z,100644.83
2022-11-06T03:29:13.189Z,100651.23
2022-11-06T03:31:54.036Z,100646.95
2022-11-06T03:34:30.535Z,100641.48
2022-11-06T03:37:04.735Z,100645.23
2022-11-06T03:39:38.572Z,100649.45
2022-11-06T03:42:34.697Z,100646.95
2022-11-06T03:45:07.544Z,100643.72
2022-11-06T03:47:56.501Z,100642.98
2022-11-06T03:50:29.263Z,100644.79
2022-11-06T03:53:01.101Z,100646.05
2022-11-06T03:55:36.144Z,100650.27
2022-11-06T03:58:16.288Z,100650.39
2022-11-06T04:00:44.949Z,100652.67
2022-11-06T04:03:24.800Z,100653.08
2022-11-06T04:05:55.730Z,100648.91
2022-11-06T04:08:42.540Z,100653.61
2022-11-06T04:11:29.968Z,100653.14
2022-11-06T04:13:58.552Z,100655.77
2022-11-06T04:16:27.191Z,100657.11
2022-11-06T04:18:54.273Z,100648.19
2022-11-06T04:21:36.589Z,100642.45
2022-11-06T04:24:43.378Z,100640.00
2022-11-06T04:27:29.150Z,100640.27
2022-11-06T04:30:09.060Z,100641.38
2022-11-06T04:32:59.855Z,100641.42
2022-11-06T04:35:36.578Z,100643.45
2022-11-06T04:38:20.445Z,100642.14
2022-11-06T04:40:59.347Z,100642.45
2022-11-06T04:43:50.358Z,100644.90
2022-11-06T04:46:24.108Z,100640.19
2022-11-06T04:48:51.619Z,100636.02
2022-11-06T04:51:23.095Z,100637.99
2022-11-06T04:53:52.461Z,100641.84
2022-11-06T04:56:29.261Z,100641.63
2022-11-06T04:58:57.226Z,100635.58
2022-11-06T05:01:24.686Z,100636.36
2022-11-06T05:03:53.249Z,100637.66
2022-11-06T05:06:21.761Z,100640.50
2022-11-06T05:08:50.738Z,100640.71
2022-11-06T05:11:18.090Z,100645.23
2022-11-06T05:13:45.774Z,100649.16
2022-11-06T05:16:13.878Z,100649.23
2022-11-06T05:18:41.073Z,100649.15
2022-11-06T05:21:26.915Z,100645.86
2022-11-06T05:23:54.219Z,100644.20
2022-11-06T05:26:21.967Z,100640.27
2022-11-06T05:28:49.834Z,100637.91
2022-11-06T05:31:17.406Z,100634.90
2022-11-06T05:33:44.639Z,100638.73
2022-11-06T05:36:11.899Z,100637.14
2022-11-06T05:38:39.258Z,100638.09
2022-11-06T05:41:07.426Z,100637.59
2022-11-06T05:43:34.775Z,100638.69
2022-11-06T05:46:02.261Z,100640.88
2022-11-06T05:48:30.315Z,100645.30
2022-11-06T05:51:02.213Z,100643.00
2022-11-06T05:53:31.400Z,100644.73
2022-11-06T05:56:00.156Z,100647.69
2022-11-06T05:58:28.536Z,100649.80
2022-11-06T06:00:56.916Z,100646.32
2022-11-06T06:03:26.009Z,100643.16
2022-11-06T06:05:53.243Z,100641.25
2022-11-06T06:08:20.414Z,100641.73
2022-11-06T06:10:48.671Z,100643.76
2022-11-06T06:13:16.686Z,100640.46
2022-11-06T06:15:44.470Z,100643.34
2022-11-06T06:18:12.477Z,100643.79
2022-11-06T06:20:40.147Z,100641.20
2022-11-06T06:23:09.577Z,100643.02
2022-11-06T06:25:37.124Z,100645.12
2022-11-06T06:28:07.534Z,100646.95
2022-11-06T06:30:36.217Z,100649.34
2022-11-06T06:33:07.229Z,100652.47
2022-11-06T06:35:34.496Z,100648.36
2022-11-06T06:38:01.783Z,100653.35
2022-11-06T06:40:30.256Z,100654.20
2022-11-06T06:42:58.521Z,100654.52
2022-11-06T06:45:26.889Z,100661.20
2022-11-06T06:47:54.039Z,100665.66
2022-11-06T06:50:21.297Z,100664.15
2022-11-06T06:52:48.652Z,100666.21
2022-11-06T06:55:16.299Z,100668.65
2022-11-06T06:57:43.364Z,100664.73
2022-11-06T07:00:11.423Z,100666.40
2022-11-06T07:02:38.687Z,100669.23
2022-11-06T07:05:07.415Z,100668.52
2022-11-06T07:07:34.730Z,100670.58
2022-11-06T07:10:02.183Z,100669.84
2022-11-06T07:12:29.520Z,100669.70
2022-11-06T07:14:56.775Z,100667.13
2022-11-06T07:17:23.927Z,100669.10
2022-11-06T07:19:51.087Z,100670.77
2022-11-06T07:22:21.672Z,100671.44
2022-11-06T07:24:55.204Z,100676.33
2022-11-06T07:27:22.560Z,100676.64
2022-11-06T07:29:49.729Z,100670.27
2022-11-06T07:32:16.956Z,100668.23
2022-11-06T07:34:44.724Z,100664.26
2022-11-06T07:37:11.890Z,100662.37
2022-11-06T07:39:39.481Z,100660.91
2022-11-06T07:42:06.790Z,100660.80
2022-11-06T07:44:35.389Z,100663.02
2022-11-06T07:47:02.951Z,100665.27
2022-11-06T07:49:30.707Z,100655.82
2022-11-06T07:51:57.949Z,100657.16
2022-11-06T07:54:25.317Z,100654.04
2022-11-06T07:56:52.671Z,100651.46
2022-11-06T07:59:20.109Z,100655.38
2022-11-06T08:01:47.374Z,100654.83
2022-11-06T08:04:14.930Z,100657.31
2022-11-06T08:06:42.208Z,100660.08
2022-11-06T08:09:09.530Z,100661.48
2022-11-06T08:11:36.779Z,100666.04
2022-11-06T08:14:04.055Z,100663.98
2022-11-06T08:16:31.617Z,100654.71
2022-11-06T08:18:59.042Z,100661.12
2022-11-06T08:21:27.219Z,100658.06
2022-11-06T08:23:54.373Z,100656.75
2022-11-06T08:26:21.575Z,100660.27
2022-11-06T08:28:49.228Z,100657.27
2022-11-06T08:31:16.646Z,100658.60
2022-11-06T08:33:43.910Z,100660.42
2022-11-06T08:36:11.343Z,100659.41
2022-11-06T08:38:38.704Z,100657.83
2022-11-06T08:41:08.556Z,100655.89
2022-11-06T08:43:37.235Z,100652.86
2022-11-06T08:46:06.436Z,100647.64
2022-11-06T08:48:34.315Z,100647.30
2022-11-06T08:51:01.728Z,100652.60
2022-11-06T08:53:28.878Z,100651.38
2022-11-06T08:55:56.239Z,100653.88
2022-11-06T08:58:23.371Z,100660.31
2022-11-06T09:00:50.676Z,100657.92
2022-11-06T09:03:20.783Z,100658.33
2022-11-06T09:05:47.987Z,100653.23
2022-11-06T09:08:16.474Z,100655.32
2022-11-06T09:10:44.953Z,100652.87
2022-11-06T09:13:13.227Z,100656.84
2022-11-06T09:15:40.800Z,100655.04
2022-11-06T09:18:08.666Z,100655.70
2022-11-06T09:20:37.053Z,100658.27
2022-11-06T09:23:06.452Z,100656.60
2022-11-06T09:25:33.682Z,100657.40
2022-11-06T09:28:01.991Z,100653.62
2022-11-06T09:30:31.547Z,100653.05
2022-11-06T09:33:01.418Z,100653.70
2022-11-06T09:35:30.994Z,100657.30
2022-11-06T09:38:03.671Z,100658.21
2022-11-06T09:40:34.920Z,100653.57
2022-11-06T09:43:50.093Z,100655.09
2022-11-06T09:46:34.582Z,100652.67
2022-11-06T09:49:02.008Z,100651.64
2022-11-06T09:51:32.431Z,100653.85
2022-11-06T09:54:06.861Z,100648.92
2022-11-06T09:56:37.650Z,100649.51
2022-11-06T09:59:06.267Z,100652.57
2022-11-06T10:01:45.352Z,100645.56
2022-11-06T10:04:36.639Z,100641.11
2022-11-06T10:07:04.885Z,100636.50
2022-11-06T10:09:32.171Z,100633.41
2022-11-06T10:12:11.389Z,100636.59
2022-11-06T10:14:44.971Z,100632.16
2022-11-06T10:17:48.089Z,100625.88
2022-11-06T10:20:46.964Z,100623.60
2022-11-06T10:23:33.157Z,100625.35
2022-11-06T10:26:09.150Z,100617.31
2022-11-06T10:29:01.359Z,100616.77
2022-11-06T10:31:51.447Z,100615.21
2022-11-06T10:34:23.720Z,100611.94
2022-11-06T10:36:58.225Z,100607.23
2022-11-06T10:39:34.206Z,100605.02
2022-11-06T10:42:22.650Z,100598.28
2022-11-06T10:44:58.810Z,100596.78
2022-11-06T10:47:36.590Z,100593.30
2022-11-06T10:50:05.818Z,100592.06
2022-11-06T10:53:00.808Z,100584.72
2022-11-06T10:55:42.190Z,100577.42
2022-11-06T10:58:14.807Z,100570.05
2022-11-06T11:00:42.707Z,100559.48
2022-11-06T11:03:27.382Z,100550.10
2022-11-06T11:05:56.128Z,100545.64
2022-11-06T11:08:38.107Z,100543.42
2022-11-06T11:11:16.290Z,100537.95
2022-11-06T11:13:45.586Z,100529.32
2022-11-06T11:16:16.593Z,100528.20
2022-11-06T11:18:44.330Z,100527.89
2022-11-06T11:21:17.204Z,100522.40
2022-11-06T11:23:46.179Z,100522.64
2022-11-06T11:26:25.248Z,100517.23
2022-11-06T11:28:55.157Z,100510.52
2022-11-06T11:31:30.861Z,100502.71
2022-11-06T11:34:01.491Z,100499.27
2022-11-06T11:36:58.953Z,100500.70
2022-11-06T11:39:29.704Z,100498.69
2022-11-06T11:42:29.188Z,100490.63
2022-11-06T11:45:18.186Z,100482.46
2022-11-06T11:47:48.070Z,100476.41
2022-11-06T11:50:25.353Z,100475.19
2022-11-06T11:53:13.325Z,100478.24
2022-11-06T11:55:46.473Z,100476.95
2022-11-06T11:58:33.122Z,100474.88
2022-11-06T12:01:05.711Z,100468.35
2022-11-06T12:03:36.883Z,100467.44
2022-11-06T12:06:16.130Z,100463.05
2022-11-06T12:08:49.526Z,100454.52
2022-11-06T12:11:24.859Z,100455.17
2022-11-06T12:14:18.227Z,100453.24
2022-11-06T12:16:50.964Z,100452.17
2022-11-06T12:19:21.050Z,100448.42
2022-11-06T12:21:54.284Z,100442.85
2022-11-06T12:24:31.287Z,100442.21
2022-11-06T12:27:04.641Z,100440.61
2022-11-06T12:29:54.069Z,100437.52
2022-11-06T12:32:52.348Z,100435.84
2022-11-06T12:35:35.054Z,100438.61
2022-11-06T12:38:06.209Z,100438.40
2022-11-06T12:40:40.362Z,100438.02
2022-11-06T12:43:43.728Z,100433.42
2022-11-06T12:46:29.508Z,100427.95
2022-11-06T12:49:34.231Z,100425.37
2022-11-06T12:52:31.133Z,100423.18
2022-11-06T12:55:31.395Z,100415.02
2022-11-06T12:58:28.602Z,100409.84
2022-11-06T13:01:13.591Z,100412.79
2022-11-06T13:04:01.809Z,100411.70
2022-11-06T13:07:00.079Z,100405.65
2022-11-06T13:09:42.044Z,100404.54
2022-11-06T13:12:28.256Z,100397.25
2022-11-06T13:15:05.585Z,100401.75
2022-11-06T13:17:46.811Z,100402.50
2022-11-06T13:20:29.759Z,100402.41
2022-11-06T13:22:57.810Z,100401.06
2022-11-06T13:25:59.765Z,100403.04
2022-11-06T13:28:43.206Z,100398.97
2022-11-06T13:31:12.828Z,100395.92
2022-11-06T13:33:46.009Z,100391.23
2022-11-06T13:36:14.199Z,100382.86
2022-11-06T13:38:47.970Z,100382.59
2022-11-06T13:41:28.041Z,100375.58
2022-11-06T13:43:57.547Z,100372.32
2022-11-06T13:46:50.682Z,100371.40
2022-11-06T13:49:41.410Z,100368.79
2022-11-06T13:52:21.266Z,100368.69
2022-11-06T13:55:01.288Z,100363.98
2022-11-06T13:57:45.870Z,100370.42
2022-11-06T14:00:23.628Z,100372.08
2022-11-06T14:03:28.189Z,100377.23
2022-11-06T14:06:09.166Z,100372.25
2022-11-06T14:08:43.667Z,100369.73
2022-11-06T14:11:16.577Z,100363.75
2022-11-06T14:13:59.322Z,100363.74
2022-11-06T14:16:30.463Z,100366.59
2022-11-06T14:19:01.588Z,100364.34
2022-11-06T14:21:38.126Z,100362.46
2022-11-06T14:24:07.614Z,100360.73
2022-11-06T14:26:44.034Z,100358.27
2022-11-06T14:29:43.108Z,100357.16
2022-11-06T14:32:24.589Z,100355.51
2022-11-06T14:34:52.339Z,100353.20
2022-11-06T14:37:19.389Z,100353.73
2022-11-06T14:39:55.549Z,100354.11
2022-11-06T14:42:32.949Z,100353.48
2022-11-06T14:45:09.828Z,100356.67
2022-11-06T14:47:58.896Z,100355.72
2022-11-06T14:50:39.183Z,100352.88
2022-11-06T14:53:31.157Z,100353.46
2022-11-06T14:56:10.260Z,100356.61
2022-11-06T14:58:40.272Z,100355.00
2022-11-06T15:01:10.775Z,100355.73
2022-11-06T15:04:16.070Z,100360.68
2022-11-06T15:06:47.094Z,100354.73
2022-11-06T15:09:18.569Z,100348.69
2022-11-06T15:11:54.378Z,100345.49
2022-11-06T15:14:22.084Z,100342.96
2022-11-06T15:16:52.897Z,100341.86
2022-11-06T15:19:30.613Z,100341.45
2022-11-06T15:22:40.196Z,100336.55
2022-11-06T15:25:20.815Z,100341.95
2022-11-06T15:27:57.043Z,100338.59
2022-11-06T15:30:25.616Z,100335.20
2022-11-06T15:32:54.609Z,100337.07
2022-11-06T15:35:33.033Z,100337.42
2022-11-06T15:38:11.927Z,100332.89
2022-11-06T15:40:40.791Z,100327.98
2022-11-06T15:43:31.312Z,100323.41
2022-11-06T15:46:22.158Z,100312.20
2022-11-06T15:49:09.534Z,100313.64
2022-11-06T15:51:40.724Z,100312.45
2022-11-06T15:54:14.865Z,100310.81
2022-11-06T15:56:43.243Z,100308.35
2022-11-06T15:59:17.377Z,100308.29
2022-11-06T16:01:49.311Z,100312.66
2022-11-06T16:04:22.796Z,100314.40
2022-11-06T16:06:53.067Z,100316.15
2022-11-06T16:09:26.617Z,100323.87
2022-11-06T16:11:54.633Z,100329.33
2022-11-06T16:14:23.006Z,100326.93
2022-11-06T16:16:52.846Z,100324.78
2022-11-06T16:19:33.689Z,100313.36
2022-11-06T16:22:08.219Z,100306.25
2022-11-06T16:24:47.615Z,100305.07
2022-11-06T16:27:15.629Z,100301.78
2022-11-06T16:29:49.532Z,100301.46
2022-11-06T16:32:20.145Z,100297.11
2022-11-06T16:34:49.300Z,100293.90
2022-11-06T16:37:18.348Z,100296.09
2022-11-06T16:39:57.906Z,100292.81
2022-11-06T16:42:27.629Z,100290.56
2022-11-06T16:45:12.412Z,100286.02
2022-11-06T16:47:40.665Z,100285.36
2022-11-06T16:50:48.427Z,100288.70
2022-11-06T16:53:21.413Z,100285.58
2022-11-06T16:56:02.637Z,100281.92
2022-11-06T16:58:35.013Z,100284.33
2022-11-06T17:01:06.064Z,100284.27
2022-11-06T17:04:00.598Z,100279.36
2022-11-06T17:06:32.232Z,100275.48
2022-11-06T17:09:09.101Z,100275.20
2022-11-06T17:11:37.850Z,100272.88
2022-11-06T17:14:20.955Z,100270.40
2022-11-06T17:16:52.748Z,100272.35
2022-11-06T17:19:23.084Z,100268.51
2022-11-06T17:21:52.056Z,100267.17
2022-11-06T17:24:38.413Z,100265.52
2022-11-06T17:27:07.532Z,100266.55
2022-11-06T17:29:37.581Z,100267.78
2022-11-06T17:32:05.782Z,100267.80
2022-11-06T17:34:47.339Z,100273.17
2022-11-06T17:37:28.022Z,100270.66
2022-11-06T17:39:56.414Z,100268.05
2022-11-06T17:42:27.599Z,100264.29
2022-11-06T17:44:56.174Z,100263.38
2022-11-06T17:47:24.128Z,100257.62
2022-11-06T17:49:52.582Z,100254.62
2022-11-06T17:52:22.943Z,100253.38
2022-11-06T17:54:53.525Z,100250.66
2022-11-06T17:57:24.303Z,100250.73
2022-11-06T17:59:54.216Z,100249.17
2022-11-06T18:02:47.678Z,100245.80
2022-11-06T18:05:16.672Z,100246.34
2022-11-06T18:07:45.834Z,100241.69
2022-11-06T18:10:13.290Z,100240.34
2022-11-06T18:12:42.029Z,100243.23
2022-11-06T18:15:10.658Z,100241.68
2022-11-06T18:17:38.700Z,100242.92
2022-11-06T18:20:07.559Z,100235.48
2022-11-06T18:22:36.066Z,100238.17
2022-11-06T18:25:06.423Z,100237.59
2022-11-06T18:27:33.845Z,100236.52
2022-11-06T18:30:02.361Z,100237.56
2022-11-06T18:32:30.588Z,100237.01
2022-11-06T18:34:58.950Z,100237.53
2022-11-06T18:37:27.349Z,100238.82
2022-11-06T18:39:55.627Z,100235.80
2022-11-06T18:42:24.087Z,100239.41
2022-11-06T18:44:52.798Z,100239.34
2022-11-06T18:47:22.409Z,100240.83
2022-11-06T18:49:50.929Z,100240.17
2022-11-06T18:52:38.147Z,100240.70
2022-11-06T18:55:08.138Z,100242.77
2022-11-06T18:57:37.092Z,100240.86
2022-11-06T19:00:07.315Z,100235.66
2022-11-06T19:02:35.561Z,100242.00
2022-11-06T19:05:07.501Z,100239.66
2022-11-06T19:07:37.490Z,100233.40
2022-11-06T19:10:06.927Z,100230.73
2022-11-06T19:12:36.282Z,100232.64
2022-11-06T19:15:08.989Z,100227.58
2022-11-06T19:17:37.154Z,100223.48
2022-11-06T19:20:13.697Z,100223.29
2022-11-06T19:22:43.345Z,100230.36
2022-11-06T19:25:11.598Z,100226.27
2022-11-06T19:27:40.078Z,100232.88
2022-11-06T19:30:10.499Z,100232.76
2022-11-06T19:32:40.347Z,100233.18
2022-11-06T19:35:09.270Z,100234.02
2022-11-06T19:37:41.566Z,100232.79
2022-11-06T19:40:15.173Z,100235.81
2022-11-06T19:42:43.654Z,100233.59
2022-11-06T19:45:11.720Z,100228.31
2022-11-06T19:47:43.173Z,100227.02
2022-11-06T19:50:11.574Z,100222.41
2022-11-06T19:52:41.923Z,100218.52
2022-11-06T19:55:25.836Z,100208.80
2022-11-06T19:58:02.790Z,100210.17
2022-11-06T20:00:32.535Z,100207.73
2022-11-06T20:03:01.002Z,100207.63
2022-11-06T20:05:31.018Z,100207.26
2022-11-06T20:07:59.202Z,100201.11
2022-11-06T20:10:27.973Z,100198.63
2022-11-06T20:12:57.268Z,100197.77
2022-11-06T20:15:25.933Z,100200.75
2022-11-06T20:17:53.942Z,100196.77
2022-11-06T20:20:23.495Z,100192.16
2022-11-06T20:22:51.909Z,100190.65
2022-11-06T20:25:20.594Z,100187.20
2022-11-06T20:27:49.321Z,100181.20
2022-11-06T20:30:18.067Z,100182.56
2022-11-06T20:32:46.861Z,100177.85
2022-11-06T20:35:18.090Z,100177.66
2022-11-06T20:37:49.341Z,100174.42
2022-11-06T20:40:17.510Z,100178.02
2022-11-06T20:42:45.799Z,100183.25
2022-11-06T20:45:14.255Z,100179.39
2022-11-06T20:47:43.575Z,100175.84
2022-11-06T20:50:11.135Z,100179.03
2022-11-06T20:52:40.310Z,100175.88
2022-11-06T20:55:09.254Z,100171.54
2022-11-06T20:57:37.498Z,100170.45
2022-11-06T21:00:06.685Z,100169.66
2022-11-06T21:02:35.048Z,100163.41
2022-11-06T21:05:03.960Z,100158.68
2022-11-06T21:07:32.237Z,100159.39
2022-11-06T21:09:59.577Z,100164.02
2022-11-06T21:12:28.077Z,100165.09
2022-11-06T21:14:56.046Z,100170.84
2022-11-06T21:17:23.825Z,100172.44
2022-11-06T21:19:52.073Z,100174.02
2022-11-06T21:22:19.435Z,100173.02
2022-11-06T21:24:47.489Z,100176.24
2022-11-06T21:27:15.677Z,100179.54
2022-11-06T21:29:43.039Z,100184.36
2022-11-06T21:32:10.477Z,100179.55
2022-11-06T21:34:37.737Z,100183.28
2022-11-06T21:37:05.816Z,100179.93
2022-11-06T21:39:36.274Z,100180.91
2022-11-06T21:42:05.411Z,100182.11
2022-11-06T21:44:32.779Z,100174.82
2022-11-06T21:47:01.061Z,100171.91
2022-11-06T21:49:29.530Z,100167.02
2022-11-06T21:52:16.764Z,100166.96
2022-11-06T21:55:03.378Z,100154.54
2022-11-06T21:57:30.936Z,100154.91
2022-11-06T21:59:58.286Z,100150.39
2022-11-06T22:02:25.563Z,100146.86
2022-11-06T22:04:54.329Z,100144.56
2022-11-06T22:07:21.777Z,100136.60
2022-11-06T22:09:49.139Z,100131.30
2022-11-06T22:12:16.579Z,100123.79
2022-11-06T22:14:43.837Z,100122.34
2022-11-06T22:17:11.307Z,100119.11
2022-11-06T22:19:38.660Z,100113.35
2022-11-06T22:22:06.231Z,100111.35
2022-11-06T22:24:34.901Z,100105.59
2022-11-06T22:27:02.456Z,100101.86
2022-11-06T22:29:30.750Z,100102.50
2022-11-06T22:31:58.091Z,100101.88
2022-11-06T22:34:25.350Z,100099.98
2022-11-06T22:36:52.702Z,100091.08
2022-11-06T22:39:20.160Z,100089.44
2022-11-06T22:41:47.724Z,100086.67
2022-11-06T22:44:15.481Z,100087.73
2022-11-06T22:46:43.033Z,100091.83
2022-11-06T22:49:10.402Z,100084.95
2022-11-06T22:51:38.016Z,100089.63
2022-11-06T22:54:06.002Z,100089.48
2022-11-06T22:56:33.990Z,100085.23
2022-11-06T22:59:04.845Z,100084.42
2022-11-06T23:01:37.375Z,100083.27
2022-11-06T23:04:15.422Z,100079.48
2022-11-06T23:06:46.347Z,100081.80
2022-11-06T23:09:14.333Z,100082.11
2022-11-06T23:11:41.652Z,100084.33
2022-11-06T23:14:09.628Z,100083.19
2022-11-06T23:16:56.972Z,100083.88
2022-11-06T23:19:25.996Z,100084.73
2022-11-06T23:22:13.262Z,100080.66
2022-11-06T23:24:41.755Z,100074.70
2022-11-06T23:27:10.549Z,100072.77
2022-11-06T23:29:37.916Z,100071.27
2022-11-06T23:32:05.852Z,100064.59
2022-11-06T23:34:33.941Z,100059.75
2022-11-06T23:37:01.402Z,100050.04
2022-11-06T23:39:28.738Z,100053.29
2022-11-06T23:41:56.208Z,100055.38
2022-11-06T23:44:42.302Z,100055.64
2022-11-06T23:47:09.639Z,100055.95
2022-11-06T23:49:37.924Z,100054.48
2022-11-06T23:52:05.915Z,100060.59
2022-11-06T23:54:34.501Z,100063.87
2022-11-06T23:57:02.343Z,100069.60
2022-11-06T23:59:30.657Z,100066.15
